FFT4532 KMCO-KISP
Flight info
| Callsign | FFT4532 |
|---|---|
| Flight time | 2h 10m |
| Altitude | 35000 |
| Route | FATHE4 VIYAP Q87 JROSS JOHAR Q109 DFENC SAWED KALDA SARDI1 |
| Aircraft | A321/M-SDE3FGHIRWY/LB1 |
Departure
| Time | 2026-04-26 00:24 |
|---|---|
| Airport | Orlando International Airport (KMCO) |
Arrival
| Time | 2026-04-26 02:34 |
|---|---|
| Airport | Long Island MacArthur Airport (KISP) |
| Time | Latitude | Longitude | Altitude | Speed | Heading |
|---|---|---|---|---|---|
| 2026-04-25 23:35 | 28.43596 | -81.31302 | 102 ft | 0 kts | 164° |
| 2026-04-26 00:01 | 28.43616 | -81.31307 | 101 ft | 4 kts | 165° |
| 2026-04-26 00:01 | 28.43630 | -81.31319 | 98 ft | 4 kts | 115° |
| 2026-04-26 00:02 | 28.43632 | -81.31343 | 97 ft | 4 kts | 60° |
| 2026-04-26 00:02 | 28.43622 | -81.31370 | 100 ft | 4 kts | 82° |
| 2026-04-26 00:02 | 28.43623 | -81.31396 | 100 ft | 4 kts | 127° |
| 2026-04-26 00:02 | 28.43643 | -81.31413 | 99 ft | 3 kts | 156° |
| 2026-04-26 00:03 | 28.43646 | -81.31415 | 99 ft | 0 kts | 155° |
| 2026-04-26 00:05 | 28.43644 | -81.31410 | 102 ft | 1 kts | 117° |
| 2026-04-26 00:06 | 28.43650 | -81.31405 | 102 ft | 0 kts | 43° |
| 2026-04-26 00:06 | 28.43653 | -81.31406 | 99 ft | 0 kts | 10° |
| 2026-04-26 00:06 | 28.43660 | -81.31406 | 101 ft | 0 kts | 3° |
| 2026-04-26 00:11 | 28.43677 | -81.31405 | 101 ft | 9 kts | 2° |
| 2026-04-26 00:11 | 28.43747 | -81.31420 | 100 ft | 9 kts | 339° |
| 2026-04-26 00:11 | 28.43802 | -81.31447 | 101 ft | 8 kts | 337° |
| 2026-04-26 00:11 | 28.43848 | -81.31458 | 99 ft | 6 kts | 355° |
| 2026-04-26 00:12 | 28.43900 | -81.31470 | 101 ft | 8 kts | 331° |
| 2026-04-26 00:12 | 28.43922 | -81.31513 | 102 ft | 6 kts | 283° |
| 2026-04-26 00:12 | 28.43924 | -81.31555 | 100 ft | 5 kts | 270° |
| 2026-04-26 00:12 | 28.43923 | -81.31633 | 100 ft | 13 kts | 270° |
| 2026-04-26 00:13 | 28.43923 | -81.31732 | 101 ft | 11 kts | 269° |
| 2026-04-26 00:13 | 28.43923 | -81.31809 | 103 ft | 8 kts | 275° |
| 2026-04-26 00:13 | 28.43946 | -81.31852 | 104 ft | 7 kts | 321° |
| 2026-04-26 00:13 | 28.43988 | -81.31873 | 105 ft | 7 kts | 341° |
| 2026-04-26 00:14 | 28.44045 | -81.31893 | 105 ft | 9 kts | 347° |
| 2026-04-26 00:14 | 28.44104 | -81.31899 | 104 ft | 9 kts | 358° |
| 2026-04-26 00:14 | 28.44170 | -81.31901 | 103 ft | 13 kts | 359° |
| 2026-04-26 00:14 | 28.44258 | -81.31902 | 102 ft | 12 kts | 359° |
| 2026-04-26 00:15 | 28.44335 | -81.31902 | 103 ft | 10 kts | 360° |
| 2026-04-26 00:15 | 28.44423 | -81.31903 | 102 ft | 15 kts | 359° |
| 2026-04-26 00:15 | 28.44528 | -81.31904 | 99 ft | 16 kts | 360° |
| 2026-04-26 00:15 | 28.44642 | -81.31905 | 97 ft | 17 kts | 360° |
| 2026-04-26 00:16 | 28.44743 | -81.31906 | 98 ft | 11 kts | 359° |
| 2026-04-26 00:16 | 28.44807 | -81.31922 | 100 ft | 8 kts | 322° |
| 2026-04-26 00:16 | 28.44825 | -81.31981 | 98 ft | 8 kts | 272° |
| 2026-04-26 00:16 | 28.44826 | -81.32046 | 98 ft | 8 kts | 269° |
| 2026-04-26 00:17 | 28.44825 | -81.32088 | 97 ft | 0 kts | 269° |
| 2026-04-26 00:18 | 28.44825 | -81.32089 | 97 ft | 0 kts | 269° |
| 2026-04-26 00:18 | 28.44825 | -81.32091 | 97 ft | 0 kts | 269° |
| 2026-04-26 00:18 | 28.44825 | -81.32093 | 97 ft | 0 kts | 269° |
| 2026-04-26 00:18 | 28.44825 | -81.32094 | 97 ft | 0 kts | 269° |
| 2026-04-26 00:19 | 28.44825 | -81.32122 | 98 ft | 8 kts | 269° |
| 2026-04-26 00:19 | 28.44824 | -81.32182 | 98 ft | 7 kts | 269° |
| 2026-04-26 00:20 | 28.44823 | -81.32249 | 99 ft | 9 kts | 269° |
| 2026-04-26 00:20 | 28.44823 | -81.32311 | 101 ft | 10 kts | 269° |
| 2026-04-26 00:20 | 28.44823 | -81.32392 | 101 ft | 9 kts | 270° |
| 2026-04-26 00:20 | 28.44822 | -81.32453 | 102 ft | 10 kts | 269° |
| 2026-04-26 00:21 | 28.44821 | -81.32527 | 102 ft | 8 kts | 269° |
| 2026-04-26 00:21 | 28.44821 | -81.32576 | 102 ft | 0 kts | 269° |
| 2026-04-26 00:22 | 28.44820 | -81.32597 | 102 ft | 6 kts | 269° |
| 2026-04-26 00:22 | 28.44820 | -81.32639 | 101 ft | 6 kts | 268° |
| 2026-04-26 00:22 | 28.44805 | -81.32683 | 103 ft | 5 kts | 223° |
| 2026-04-26 00:22 | 28.44765 | -81.32697 | 104 ft | 9 kts | 187° |
| 2026-04-26 00:23 | 28.44702 | -81.32697 | 105 ft | 13 kts | 179° |
| 2026-04-26 00:23 | 28.44376 | -81.32690 | 100 ft | 82 kts | 179° |
| 2026-04-26 00:23 | 28.43605 | -81.32684 | 101 ft | 136 kts | 180° |
| 2026-04-26 00:23 | 28.42521 | -81.32671 | 107 ft | 176 kts | 179° |
| 2026-04-26 00:24 | 28.41322 | -81.32667 | 784 ft | 162 kts | 178° |
| 2026-04-26 00:24 | 28.40183 | -81.32727 | 1383 ft | 164 kts | 190° |
| 2026-04-26 00:24 | 28.39090 | -81.33151 | 1893 ft | 168 kts | 200° |
| 2026-04-26 00:24 | 28.37939 | -81.33662 | 2068 ft | 187 kts | 200° |
| 2026-04-26 00:25 | 28.36683 | -81.34219 | 2210 ft | 204 kts | 201° |
| 2026-04-26 00:25 | 28.35378 | -81.35020 | 2377 ft | 219 kts | 214° |
| 2026-04-26 00:25 | 28.34247 | -81.36183 | 2716 ft | 223 kts | 228° |
| 2026-04-26 00:25 | 28.33567 | -81.37766 | 3136 ft | 227 kts | 259° |
| 2026-04-26 00:26 | 28.33763 | -81.39519 | 3569 ft | 231 kts | 292° |
| 2026-04-26 00:26 | 28.34800 | -81.41005 | 3714 ft | 257 kts | 323° |
| 2026-04-26 00:26 | 28.36514 | -81.41763 | 4260 ft | 271 kts | 349° |
| 2026-04-26 00:26 | 28.38398 | -81.42053 | 5056 ft | 274 kts | 352° |
| 2026-04-26 00:27 | 28.40308 | -81.42282 | 5813 ft | 278 kts | 353° |
| 2026-04-26 00:27 | 28.42235 | -81.42499 | 6512 ft | 282 kts | 353° |
| 2026-04-26 00:27 | 28.44213 | -81.42714 | 7212 ft | 285 kts | 353° |
| 2026-04-26 00:27 | 28.46182 | -81.42852 | 7921 ft | 288 kts | 356° |
| 2026-04-26 00:28 | 28.48208 | -81.42894 | 8628 ft | 290 kts | 357° |
| 2026-04-26 00:28 | 28.50215 | -81.42901 | 9361 ft | 292 kts | 358° |
| 2026-04-26 00:28 | 28.52264 | -81.42893 | 10056 ft | 294 kts | 357° |
| 2026-04-26 00:28 | 28.54372 | -81.42886 | 10325 ft | 314 kts | 357° |
| 2026-04-26 00:29 | 28.56637 | -81.42887 | 10450 ft | 336 kts | 357° |
| 2026-04-26 00:29 | 28.59051 | -81.42890 | 10591 ft | 356 kts | 358° |
| 2026-04-26 00:29 | 28.61543 | -81.42891 | 11044 ft | 364 kts | 358° |
| 2026-04-26 00:29 | 28.64106 | -81.42889 | 11687 ft | 368 kts | 358° |
| 2026-04-26 00:30 | 28.66651 | -81.42887 | 12365 ft | 370 kts | 358° |
| 2026-04-26 00:30 | 28.69245 | -81.42888 | 13046 ft | 372 kts | 357° |
| 2026-04-26 00:30 | 28.71845 | -81.42895 | 13706 ft | 374 kts | 357° |
| 2026-04-26 00:30 | 28.74475 | -81.42906 | 14291 ft | 377 kts | 357° |
| 2026-04-26 00:31 | 28.77082 | -81.42920 | 14822 ft | 380 kts | 357° |
| 2026-04-26 00:31 | 28.79744 | -81.42932 | 15356 ft | 383 kts | 357° |
| 2026-04-26 00:31 | 28.82439 | -81.42939 | 15866 ft | 387 kts | 358° |
| 2026-04-26 00:31 | 28.85108 | -81.42943 | 16361 ft | 390 kts | 358° |
| 2026-04-26 00:32 | 28.87847 | -81.42946 | 16857 ft | 393 kts | 358° |
| 2026-04-26 00:32 | 28.90600 | -81.42950 | 17355 ft | 396 kts | 358° |
| 2026-04-26 00:32 | 28.96146 | -81.42960 | 18325 ft | 403 kts | 358° |
| 2026-04-26 00:33 | 28.98965 | -81.42968 | 18727 ft | 406 kts | 358° |
| 2026-04-26 00:33 | 29.01801 | -81.42977 | 19151 ft | 409 kts | 358° |
| 2026-04-26 00:33 | 29.04663 | -81.42988 | 19568 ft | 411 kts | 358° |
| 2026-04-26 00:33 | 29.07540 | -81.42998 | 19961 ft | 414 kts | 358° |
| 2026-04-26 00:34 | 29.10436 | -81.43006 | 20365 ft | 417 kts | 358° |
| 2026-04-26 00:34 | 29.13323 | -81.43010 | 20761 ft | 420 kts | 358° |
| 2026-04-26 00:34 | 29.16257 | -81.43013 | 21157 ft | 423 kts | 358° |
| 2026-04-26 00:34 | 29.19212 | -81.43018 | 21549 ft | 425 kts | 358° |
| 2026-04-26 00:35 | 29.22153 | -81.43025 | 21958 ft | 428 kts | 357° |
| 2026-04-26 00:35 | 29.25164 | -81.43033 | 22357 ft | 431 kts | 357° |
| 2026-04-26 00:35 | 29.28185 | -81.43040 | 22751 ft | 434 kts | 357° |
| 2026-04-26 00:35 | 29.31184 | -81.43047 | 23137 ft | 437 kts | 357° |
| 2026-04-26 00:36 | 29.34244 | -81.43055 | 23511 ft | 440 kts | 357° |
| 2026-04-26 00:36 | 29.37323 | -81.43066 | 23814 ft | 442 kts | 357° |
| 2026-04-26 00:36 | 29.40377 | -81.43075 | 24125 ft | 444 kts | 357° |
| 2026-04-26 00:36 | 29.43485 | -81.43081 | 24453 ft | 446 kts | 357° |
| 2026-04-26 00:37 | 29.46596 | -81.43087 | 24771 ft | 448 kts | 357° |
| 2026-04-26 00:37 | 29.49726 | -81.43095 | 25081 ft | 450 kts | 357° |
| 2026-04-26 00:37 | 29.52882 | -81.43103 | 25403 ft | 452 kts | 357° |
| 2026-04-26 00:37 | 29.56042 | -81.43112 | 25702 ft | 454 kts | 357° |
| 2026-04-26 00:38 | 29.59181 | -81.43121 | 26002 ft | 456 kts | 357° |
| 2026-04-26 00:38 | 29.62364 | -81.43129 | 26290 ft | 458 kts | 358° |
| 2026-04-26 00:38 | 29.65566 | -81.43137 | 26587 ft | 460 kts | 358° |
| 2026-04-26 00:38 | 29.68790 | -81.43146 | 26869 ft | 462 kts | 358° |
| 2026-04-26 00:39 | 29.71985 | -81.43153 | 27145 ft | 464 kts | 358° |
| 2026-04-26 00:39 | 29.75249 | -81.43160 | 27434 ft | 466 kts | 357° |
| 2026-04-26 00:39 | 29.78473 | -81.43172 | 27716 ft | 468 kts | 357° |
| 2026-04-26 00:39 | 29.81742 | -81.43184 | 27995 ft | 470 kts | 357° |
| 2026-04-26 00:40 | 29.85027 | -81.43195 | 28264 ft | 472 kts | 357° |
| 2026-04-26 00:40 | 29.88330 | -81.43202 | 28590 ft | 472 kts | 357° |
| 2026-04-26 00:40 | 29.91586 | -81.43211 | 28961 ft | 471 kts | 357° |
| 2026-04-26 00:40 | 29.94871 | -81.43222 | 29338 ft | 470 kts | 357° |
| 2026-04-26 00:41 | 29.98147 | -81.43231 | 29704 ft | 469 kts | 357° |
| 2026-04-26 00:41 | 30.01418 | -81.43236 | 30053 ft | 469 kts | 357° |
| 2026-04-26 00:41 | 30.04647 | -81.43241 | 30356 ft | 468 kts | 357° |
| 2026-04-26 00:41 | 30.07919 | -81.43249 | 30684 ft | 467 kts | 357° |
| 2026-04-26 00:42 | 30.11186 | -81.43258 | 31011 ft | 466 kts | 357° |
| 2026-04-26 00:42 | 30.14386 | -81.43269 | 31331 ft | 464 kts | 356° |
| 2026-04-26 00:42 | 30.17624 | -81.43280 | 31649 ft | 463 kts | 356° |
| 2026-04-26 00:42 | 30.20847 | -81.43291 | 31979 ft | 462 kts | 356° |
| 2026-04-26 00:43 | 30.24070 | -81.43301 | 32308 ft | 461 kts | 356° |
| 2026-04-26 00:43 | 30.27271 | -81.43307 | 32637 ft | 460 kts | 356° |
| 2026-04-26 00:43 | 30.30449 | -81.43312 | 32970 ft | 459 kts | 356° |
| 2026-04-26 00:43 | 30.33644 | -81.43315 | 33298 ft | 458 kts | 356° |
| 2026-04-26 00:44 | 30.36843 | -81.43319 | 33624 ft | 457 kts | 356° |
| 2026-04-26 00:44 | 30.39984 | -81.43328 | 33940 ft | 455 kts | 356° |
| 2026-04-26 00:44 | 30.43157 | -81.43339 | 34216 ft | 454 kts | 356° |
| 2026-04-26 00:44 | 30.46323 | -81.43349 | 34481 ft | 454 kts | 355° |
| 2026-04-26 00:45 | 30.49486 | -81.43360 | 34738 ft | 453 kts | 355° |
| 2026-04-26 00:45 | 30.51574 | -81.43368 | 34886 ft | 453 kts | 355° |
| 2026-04-26 00:45 | 30.58880 | -81.43384 | 34946 ft | 450 kts | 355° |
| 2026-04-26 00:46 | 30.65154 | -81.43400 | 34944 ft | 450 kts | 355° |
| 2026-04-26 00:46 | 30.71377 | -81.43414 | 34940 ft | 450 kts | 355° |
| 2026-04-26 00:47 | 30.77650 | -81.43435 | 34931 ft | 450 kts | 355° |
| 2026-04-26 00:47 | 30.83926 | -81.43461 | 34923 ft | 450 kts | 355° |
| 2026-04-26 00:48 | 30.90174 | -81.43479 | 34902 ft | 450 kts | 355° |
| 2026-04-26 00:48 | 30.96465 | -81.43484 | 34903 ft | 451 kts | 355° |
| 2026-04-26 00:49 | 31.02723 | -81.43504 | 34908 ft | 451 kts | 355° |
| 2026-04-26 00:49 | 31.09032 | -81.43518 | 34911 ft | 451 kts | 355° |
| 2026-04-26 00:50 | 31.15290 | -81.43541 | 34917 ft | 452 kts | 355° |
| 2026-04-26 00:50 | 31.21569 | -81.43551 | 34925 ft | 453 kts | 358° |
| 2026-04-26 00:51 | 31.27836 | -81.42093 | 34921 ft | 465 kts | 17° |
| 2026-04-26 00:51 | 31.33719 | -81.38960 | 34913 ft | 468 kts | 21° |
| 2026-04-26 00:52 | 31.39641 | -81.35749 | 34910 ft | 469 kts | 21° |
| 2026-04-26 00:52 | 31.44574 | -81.33085 | 34904 ft | 469 kts | 21° |
| 2026-04-26 00:53 | 31.51475 | -81.29333 | 34899 ft | 470 kts | 21° |
| 2026-04-26 00:53 | 31.57410 | -81.26099 | 34896 ft | 471 kts | 21° |
| 2026-04-26 00:54 | 31.62393 | -81.23392 | 34890 ft | 471 kts | 21° |
| 2026-04-26 00:54 | 31.68341 | -81.20152 | 34885 ft | 471 kts | 21° |
| 2026-04-26 00:55 | 31.74282 | -81.16897 | 34882 ft | 472 kts | 21° |
| 2026-04-26 00:55 | 31.80205 | -81.13646 | 34878 ft | 472 kts | 21° |
| 2026-04-26 00:56 | 31.86160 | -81.10377 | 34876 ft | 472 kts | 21° |
| 2026-04-26 00:56 | 31.92107 | -81.07113 | 34877 ft | 472 kts | 21° |
| 2026-04-26 00:57 | 31.98065 | -81.03843 | 34878 ft | 472 kts | 20° |
| 2026-04-26 00:57 | 32.04015 | -81.00557 | 34878 ft | 472 kts | 21° |
| 2026-04-26 00:58 | 32.09953 | -80.97231 | 34880 ft | 473 kts | 21° |
| 2026-04-26 00:58 | 32.15893 | -80.93893 | 34910 ft | 473 kts | 21° |
| 2026-04-26 00:59 | 32.21846 | -80.90547 | 34918 ft | 473 kts | 21° |
| 2026-04-26 00:59 | 32.27794 | -80.87204 | 34926 ft | 473 kts | 21° |
| 2026-04-26 01:00 | 32.33704 | -80.83879 | 34923 ft | 473 kts | 21° |
| 2026-04-26 01:00 | 32.39659 | -80.80527 | 34905 ft | 473 kts | 21° |
| 2026-04-26 01:01 | 32.45602 | -80.77174 | 34907 ft | 473 kts | 21° |
| 2026-04-26 01:01 | 32.51550 | -80.73816 | 34905 ft | 473 kts | 21° |
| 2026-04-26 01:02 | 32.57492 | -80.70455 | 34907 ft | 473 kts | 21° |
| 2026-04-26 01:02 | 32.63437 | -80.67081 | 34913 ft | 473 kts | 21° |
| 2026-04-26 01:03 | 32.69312 | -80.63631 | 34908 ft | 476 kts | 27° |
| 2026-04-26 01:03 | 32.74479 | -80.58627 | 34921 ft | 484 kts | 43° |
| 2026-04-26 01:04 | 32.79158 | -80.52883 | 34936 ft | 484 kts | 43° |
| 2026-04-26 01:04 | 32.83847 | -80.47124 | 34932 ft | 484 kts | 43° |
| 2026-04-26 01:05 | 32.88534 | -80.41381 | 34932 ft | 484 kts | 43° |
| 2026-04-26 01:05 | 32.93216 | -80.35623 | 34917 ft | 484 kts | 43° |
| 2026-04-26 01:06 | 32.97858 | -80.29892 | 34916 ft | 483 kts | 43° |
| 2026-04-26 01:06 | 33.02536 | -80.24127 | 34919 ft | 483 kts | 43° |
| 2026-04-26 01:07 | 33.07200 | -80.18362 | 34911 ft | 483 kts | 43° |
| 2026-04-26 01:07 | 33.11869 | -80.12574 | 34916 ft | 482 kts | 43° |
| 2026-04-26 01:08 | 33.16494 | -80.06833 | 34917 ft | 482 kts | 43° |
| 2026-04-26 01:08 | 33.21145 | -80.01048 | 34918 ft | 483 kts | 43° |
| 2026-04-26 01:09 | 33.25804 | -79.95255 | 34915 ft | 483 kts | 43° |
| 2026-04-26 01:09 | 33.30463 | -79.89455 | 34907 ft | 483 kts | 43° |
| 2026-04-26 01:10 | 33.35080 | -79.83691 | 34902 ft | 483 kts | 43° |
| 2026-04-26 01:10 | 33.39734 | -79.77886 | 34896 ft | 483 kts | 43° |
| 2026-04-26 01:11 | 33.44379 | -79.72069 | 34903 ft | 483 kts | 44° |
| 2026-04-26 01:11 | 33.49019 | -79.66236 | 34907 ft | 483 kts | 44° |
| 2026-04-26 01:12 | 33.53662 | -79.60395 | 34911 ft | 484 kts | 44° |
| 2026-04-26 01:12 | 33.58303 | -79.54542 | 34908 ft | 484 kts | 44° |
| 2026-04-26 01:13 | 33.62942 | -79.48690 | 34910 ft | 484 kts | 44° |
| 2026-04-26 01:13 | 33.67564 | -79.42870 | 34911 ft | 484 kts | 44° |
| 2026-04-26 01:14 | 33.72199 | -79.37001 | 34915 ft | 484 kts | 44° |
| 2026-04-26 01:14 | 33.76827 | -79.31124 | 34922 ft | 484 kts | 44° |
| 2026-04-26 01:15 | 33.81467 | -79.25234 | 34926 ft | 484 kts | 44° |
| 2026-04-26 01:15 | 33.86098 | -79.19346 | 34929 ft | 484 kts | 44° |
| 2026-04-26 01:16 | 33.90693 | -79.13497 | 34927 ft | 484 kts | 44° |
| 2026-04-26 01:16 | 33.95320 | -79.07611 | 34923 ft | 483 kts | 44° |
| 2026-04-26 01:17 | 33.99936 | -79.01707 | 34913 ft | 483 kts | 44° |
| 2026-04-26 01:17 | 34.04540 | -78.95795 | 34904 ft | 483 kts | 44° |
| 2026-04-26 01:18 | 34.09148 | -78.89889 | 34914 ft | 484 kts | 44° |
| 2026-04-26 01:18 | 34.13763 | -78.83968 | 34926 ft | 484 kts | 44° |
| 2026-04-26 01:19 | 34.18344 | -78.78073 | 34928 ft | 484 kts | 44° |
| 2026-04-26 01:19 | 34.22946 | -78.72139 | 34927 ft | 484 kts | 44° |
| 2026-04-26 01:20 | 34.27540 | -78.66203 | 34921 ft | 483 kts | 44° |
| 2026-04-26 01:20 | 34.32154 | -78.60257 | 34913 ft | 482 kts | 41° |
| 2026-04-26 01:21 | 34.37310 | -78.55125 | 34900 ft | 479 kts | 34° |
| 2026-04-26 01:21 | 34.42545 | -78.50193 | 34886 ft | 480 kts | 35° |
| 2026-04-26 01:22 | 34.47809 | -78.45212 | 34888 ft | 480 kts | 35° |
| 2026-04-26 01:22 | 34.53064 | -78.40224 | 34899 ft | 480 kts | 35° |
| 2026-04-26 01:23 | 34.58335 | -78.35218 | 34893 ft | 480 kts | 35° |
| 2026-04-26 01:23 | 34.63570 | -78.30245 | 34891 ft | 481 kts | 35° |
| 2026-04-26 01:24 | 34.68833 | -78.25230 | 34887 ft | 481 kts | 35° |
| 2026-04-26 01:24 | 34.74101 | -78.20204 | 34891 ft | 482 kts | 35° |
| 2026-04-26 01:25 | 34.79372 | -78.15170 | 34893 ft | 482 kts | 35° |
| 2026-04-26 01:25 | 34.84651 | -78.10115 | 34893 ft | 482 kts | 35° |
| 2026-04-26 01:26 | 34.89935 | -78.05059 | 34914 ft | 483 kts | 35° |
| 2026-04-26 01:26 | 34.95230 | -78.00012 | 34919 ft | 483 kts | 35° |
| 2026-04-26 01:27 | 35.00529 | -77.94948 | 34918 ft | 484 kts | 35° |
| 2026-04-26 01:27 | 35.05796 | -77.89894 | 34919 ft | 484 kts | 35° |
| 2026-04-26 01:28 | 35.11099 | -77.84800 | 34914 ft | 485 kts | 35° |
| 2026-04-26 01:28 | 35.16412 | -77.79690 | 34894 ft | 485 kts | 35° |
| 2026-04-26 01:29 | 35.21712 | -77.74585 | 34922 ft | 485 kts | 35° |
| 2026-04-26 01:29 | 35.27023 | -77.69465 | 34929 ft | 485 kts | 35° |
| 2026-04-26 01:30 | 35.32330 | -77.64330 | 34930 ft | 486 kts | 35° |
| 2026-04-26 01:30 | 35.37607 | -77.59216 | 34931 ft | 486 kts | 35° |
| 2026-04-26 01:31 | 35.42918 | -77.54072 | 34931 ft | 486 kts | 35° |
| 2026-04-26 01:31 | 35.48218 | -77.48928 | 34942 ft | 486 kts | 35° |
| 2026-04-26 01:32 | 35.53528 | -77.43754 | 34959 ft | 487 kts | 35° |
| 2026-04-26 01:32 | 35.58802 | -77.38612 | 34970 ft | 487 kts | 35° |
| 2026-04-26 01:33 | 35.64110 | -77.33422 | 34973 ft | 487 kts | 35° |
| 2026-04-26 01:33 | 35.69416 | -77.28224 | 34963 ft | 487 kts | 35° |
| 2026-04-26 01:34 | 35.74726 | -77.23029 | 34956 ft | 487 kts | 35° |
| 2026-04-26 01:34 | 35.80024 | -77.17829 | 34969 ft | 487 kts | 35° |
| 2026-04-26 01:35 | 35.85296 | -77.12628 | 34973 ft | 488 kts | 35° |
| 2026-04-26 01:35 | 35.90605 | -77.07394 | 34976 ft | 488 kts | 35° |
| 2026-04-26 01:36 | 35.96271 | -77.02924 | 34952 ft | 482 kts | 26° |
| 2026-04-26 01:37 | 36.04951 | -76.96610 | 34919 ft | 483 kts | 26° |
| 2026-04-26 01:37 | 36.10739 | -76.92375 | 34905 ft | 483 kts | 26° |
| 2026-04-26 01:38 | 36.16499 | -76.88166 | 34908 ft | 484 kts | 26° |
| 2026-04-26 01:38 | 36.22299 | -76.83910 | 34907 ft | 484 kts | 26° |
| 2026-04-26 01:39 | 36.28100 | -76.79641 | 34899 ft | 485 kts | 26° |
| 2026-04-26 01:39 | 36.33911 | -76.75364 | 34888 ft | 485 kts | 26° |
| 2026-04-26 01:40 | 36.39724 | -76.71092 | 34897 ft | 485 kts | 26° |
| 2026-04-26 01:40 | 36.44549 | -76.67535 | 34906 ft | 486 kts | 26° |
| 2026-04-26 01:41 | 36.50358 | -76.63244 | 34922 ft | 486 kts | 26° |
| 2026-04-26 01:41 | 36.57116 | -76.58233 | 34935 ft | 486 kts | 26° |
| 2026-04-26 01:42 | 36.61988 | -76.54615 | 34937 ft | 487 kts | 26° |
| 2026-04-26 01:42 | 36.67774 | -76.50318 | 34939 ft | 487 kts | 26° |
| 2026-04-26 01:43 | 36.73601 | -76.45984 | 34937 ft | 487 kts | 26° |
| 2026-04-26 01:43 | 36.79429 | -76.41648 | 34937 ft | 487 kts | 26° |
| 2026-04-26 01:44 | 36.85245 | -76.37296 | 34937 ft | 487 kts | 26° |
| 2026-04-26 01:44 | 36.91062 | -76.32942 | 34943 ft | 488 kts | 26° |
| 2026-04-26 01:45 | 36.96883 | -76.28570 | 34946 ft | 487 kts | 26° |
| 2026-04-26 01:45 | 37.02663 | -76.24233 | 34947 ft | 487 kts | 26° |
| 2026-04-26 01:46 | 37.08474 | -76.19865 | 34953 ft | 487 kts | 26° |
| 2026-04-26 01:46 | 37.14273 | -76.15489 | 34940 ft | 486 kts | 26° |
| 2026-04-26 01:47 | 37.20081 | -76.11094 | 34934 ft | 487 kts | 26° |
| 2026-04-26 01:47 | 37.25845 | -76.06724 | 34939 ft | 487 kts | 26° |
| 2026-04-26 01:48 | 37.31666 | -76.02326 | 34933 ft | 488 kts | 26° |
| 2026-04-26 01:48 | 37.37480 | -75.97923 | 34941 ft | 488 kts | 26° |
| 2026-04-26 01:49 | 37.43305 | -75.93479 | 34945 ft | 489 kts | 26° |
| 2026-04-26 01:49 | 37.49129 | -75.89043 | 34941 ft | 489 kts | 26° |
| 2026-04-26 01:50 | 37.54955 | -75.84603 | 34942 ft | 490 kts | 26° |
| 2026-04-26 01:50 | 37.60771 | -75.80232 | 34938 ft | 490 kts | 25° |
| 2026-04-26 01:51 | 37.66639 | -75.75853 | 34942 ft | 490 kts | 25° |
| 2026-04-26 01:51 | 37.72505 | -75.71472 | 34948 ft | 490 kts | 25° |
| 2026-04-26 01:52 | 37.78369 | -75.67062 | 34961 ft | 490 kts | 26° |
| 2026-04-26 01:52 | 37.84226 | -75.62633 | 34974 ft | 490 kts | 26° |
| 2026-04-26 01:53 | 37.89950 | -75.57911 | 34988 ft | 492 kts | 30° |
| 2026-04-26 01:53 | 37.95544 | -75.52897 | 34988 ft | 493 kts | 31° |
| 2026-04-26 01:54 | 38.01117 | -75.47895 | 34985 ft | 493 kts | 30° |
| 2026-04-26 01:54 | 38.06760 | -75.42960 | 34980 ft | 492 kts | 29° |
| 2026-04-26 01:55 | 38.12518 | -75.38248 | 34972 ft | 491 kts | 27° |
| 2026-04-26 01:55 | 38.18273 | -75.33669 | 34969 ft | 491 kts | 27° |
| 2026-04-26 01:56 | 38.24066 | -75.29043 | 34968 ft | 489 kts | 24° |
| 2026-04-26 01:56 | 38.30236 | -75.25639 | 34974 ft | 481 kts | 14° |
| 2026-04-26 01:57 | 38.36500 | -75.22623 | 34981 ft | 481 kts | 14° |
| 2026-04-26 01:57 | 38.42767 | -75.19600 | 34985 ft | 481 kts | 14° |
| 2026-04-26 01:58 | 38.48980 | -75.16591 | 34993 ft | 480 kts | 14° |
| 2026-04-26 01:58 | 38.55229 | -75.13543 | 34994 ft | 480 kts | 14° |
| 2026-04-26 01:59 | 38.61467 | -75.10497 | 34998 ft | 480 kts | 16° |
| 2026-04-26 01:59 | 38.67271 | -75.06081 | 34999 ft | 494 kts | 36° |
| 2026-04-26 02:00 | 38.72334 | -75.00244 | 34917 ft | 481 kts | 37° |
| 2026-04-26 02:00 | 38.74797 | -74.97393 | 34627 ft | 474 kts | 37° |
| 2026-04-26 02:00 | 38.77233 | -74.94579 | 34565 ft | 467 kts | 37° |
| 2026-04-26 02:00 | 38.79659 | -74.91821 | 34812 ft | 466 kts | 36° |
| 2026-04-26 02:01 | 38.82158 | -74.89129 | 34829 ft | 473 kts | 34° |
| 2026-04-26 02:01 | 38.84757 | -74.86457 | 34598 ft | 484 kts | 33° |
| 2026-04-26 02:01 | 38.87423 | -74.83784 | 34362 ft | 489 kts | 33° |
| 2026-04-26 02:01 | 38.90077 | -74.81127 | 34129 ft | 491 kts | 33° |
| 2026-04-26 02:02 | 38.92777 | -74.78390 | 33700 ft | 493 kts | 34° |
| 2026-04-26 02:02 | 38.95467 | -74.75622 | 32988 ft | 494 kts | 34° |
| 2026-04-26 02:02 | 38.98126 | -74.72849 | 32437 ft | 491 kts | 35° |
| 2026-04-26 02:02 | 39.00760 | -74.70067 | 31880 ft | 489 kts | 35° |
| 2026-04-26 02:03 | 39.03375 | -74.67289 | 31297 ft | 486 kts | 35° |
| 2026-04-26 02:03 | 39.05973 | -74.64526 | 30765 ft | 484 kts | 35° |
| 2026-04-26 02:03 | 39.08571 | -74.61769 | 30198 ft | 481 kts | 35° |
| 2026-04-26 02:03 | 39.11153 | -74.59038 | 29580 ft | 479 kts | 35° |
| 2026-04-26 02:04 | 39.13719 | -74.56329 | 29068 ft | 474 kts | 35° |
| 2026-04-26 02:04 | 39.16230 | -74.53665 | 28454 ft | 472 kts | 36° |
| 2026-04-26 02:04 | 39.18748 | -74.50954 | 27875 ft | 469 kts | 36° |
| 2026-04-26 02:04 | 39.21229 | -74.48244 | 27353 ft | 465 kts | 37° |
| 2026-04-26 02:05 | 39.23679 | -74.45546 | 26840 ft | 462 kts | 37° |
| 2026-04-26 02:05 | 39.26112 | -74.42868 | 26327 ft | 458 kts | 37° |
| 2026-04-26 02:05 | 39.28537 | -74.40206 | 25839 ft | 456 kts | 37° |
| 2026-04-26 02:05 | 39.30937 | -74.37566 | 25363 ft | 453 kts | 37° |
| 2026-04-26 02:06 | 39.33323 | -74.34942 | 24939 ft | 448 kts | 37° |
| 2026-04-26 02:06 | 39.35697 | -74.32334 | 24520 ft | 444 kts | 38° |
| 2026-04-26 02:06 | 39.38048 | -74.29749 | 24012 ft | 442 kts | 38° |
| 2026-04-26 02:06 | 39.40345 | -74.27221 | 23505 ft | 440 kts | 38° |
| 2026-04-26 02:07 | 39.42658 | -74.24666 | 23102 ft | 433 kts | 38° |
| 2026-04-26 02:07 | 39.44940 | -74.22139 | 22533 ft | 431 kts | 38° |
| 2026-04-26 02:07 | 39.47198 | -74.19628 | 22065 ft | 426 kts | 38° |
| 2026-04-26 02:07 | 39.49435 | -74.17138 | 21636 ft | 421 kts | 38° |
| 2026-04-26 02:08 | 39.51643 | -74.14670 | 21111 ft | 418 kts | 39° |
| 2026-04-26 02:08 | 39.53628 | -74.11924 | 20702 ft | 416 kts | 48° |
| 2026-04-26 02:08 | 39.55447 | -74.09061 | 20443 ft | 407 kts | 48° |
| 2026-04-26 02:08 | 39.57228 | -74.06257 | 20174 ft | 399 kts | 48° |
| 2026-04-26 02:09 | 39.58978 | -74.03503 | 19902 ft | 392 kts | 47° |
| 2026-04-26 02:09 | 39.60705 | -74.00789 | 19636 ft | 387 kts | 47° |
| 2026-04-26 02:09 | 39.62417 | -73.98109 | 19375 ft | 384 kts | 47° |
| 2026-04-26 02:09 | 39.64119 | -73.95445 | 19114 ft | 382 kts | 47° |
| 2026-04-26 02:10 | 39.65811 | -73.92793 | 18855 ft | 380 kts | 47° |
| 2026-04-26 02:10 | 39.67493 | -73.90153 | 18606 ft | 378 kts | 47° |
| 2026-04-26 02:10 | 39.69141 | -73.87558 | 18337 ft | 377 kts | 47° |
| 2026-04-26 02:10 | 39.70803 | -73.84943 | 18055 ft | 375 kts | 47° |
| 2026-04-26 02:11 | 39.72461 | -73.82335 | 17804 ft | 373 kts | 47° |
| 2026-04-26 02:11 | 39.74106 | -73.79741 | 17555 ft | 371 kts | 47° |
| 2026-04-26 02:11 | 39.75743 | -73.77155 | 17301 ft | 369 kts | 47° |
| 2026-04-26 02:11 | 39.77372 | -73.74579 | 17046 ft | 368 kts | 47° |
| 2026-04-26 02:12 | 39.78993 | -73.72008 | 16796 ft | 366 kts | 47° |
| 2026-04-26 02:12 | 39.80602 | -73.69455 | 16541 ft | 364 kts | 47° |
| 2026-04-26 02:12 | 39.82204 | -73.66914 | 16290 ft | 363 kts | 47° |
| 2026-04-26 02:12 | 39.83800 | -73.64381 | 16051 ft | 361 kts | 47° |
| 2026-04-26 02:13 | 39.85388 | -73.61860 | 15810 ft | 359 kts | 47° |
| 2026-04-26 02:13 | 39.86968 | -73.59349 | 15560 ft | 358 kts | 47° |
| 2026-04-26 02:13 | 39.88524 | -73.56876 | 15318 ft | 357 kts | 47° |
| 2026-04-26 02:13 | 39.90109 | -73.54399 | 15080 ft | 354 kts | 43° |
| 2026-04-26 02:14 | 39.91887 | -73.52216 | 14844 ft | 351 kts | 38° |
| 2026-04-26 02:14 | 39.93702 | -73.50081 | 14603 ft | 350 kts | 38° |
| 2026-04-26 02:14 | 39.95500 | -73.47956 | 14366 ft | 349 kts | 38° |
| 2026-04-26 02:14 | 39.97299 | -73.45825 | 14132 ft | 348 kts | 38° |
| 2026-04-26 02:15 | 39.99089 | -73.43705 | 13892 ft | 347 kts | 38° |
| 2026-04-26 02:15 | 40.00879 | -73.41587 | 13635 ft | 347 kts | 38° |
| 2026-04-26 02:15 | 40.02669 | -73.39468 | 13398 ft | 347 kts | 38° |
| 2026-04-26 02:15 | 40.04453 | -73.37353 | 13159 ft | 346 kts | 38° |
| 2026-04-26 02:16 | 40.06235 | -73.35240 | 12920 ft | 345 kts | 39° |
| 2026-04-26 02:16 | 40.08011 | -73.33132 | 12685 ft | 345 kts | 39° |
| 2026-04-26 02:16 | 40.09783 | -73.31027 | 12451 ft | 344 kts | 39° |
| 2026-04-26 02:16 | 40.11554 | -73.28923 | 12209 ft | 344 kts | 39° |
| 2026-04-26 02:17 | 40.13317 | -73.26825 | 11978 ft | 343 kts | 39° |
| 2026-04-26 02:17 | 40.15078 | -73.24723 | 11748 ft | 342 kts | 39° |
| 2026-04-26 02:17 | 40.16831 | -73.22634 | 11506 ft | 341 kts | 39° |
| 2026-04-26 02:17 | 40.18584 | -73.20546 | 11280 ft | 340 kts | 39° |
| 2026-04-26 02:18 | 40.20307 | -73.18483 | 11047 ft | 339 kts | 39° |
| 2026-04-26 02:18 | 40.22065 | -73.16372 | 10815 ft | 338 kts | 39° |
| 2026-04-26 02:18 | 40.23779 | -73.14317 | 10590 ft | 338 kts | 39° |
| 2026-04-26 02:18 | 40.25511 | -73.12240 | 10355 ft | 337 kts | 39° |
| 2026-04-26 02:19 | 40.27224 | -73.10184 | 10172 ft | 329 kts | 39° |
| 2026-04-26 02:19 | 40.28884 | -73.08197 | 10013 ft | 319 kts | 39° |
| 2026-04-26 02:19 | 40.30503 | -73.06257 | 9801 ft | 312 kts | 39° |
| 2026-04-26 02:19 | 40.32105 | -73.04336 | 9657 ft | 312 kts | 39° |
| 2026-04-26 02:20 | 40.33710 | -73.02410 | 9451 ft | 311 kts | 39° |
| 2026-04-26 02:20 | 40.35309 | -73.00493 | 9248 ft | 311 kts | 40° |
| 2026-04-26 02:20 | 40.36901 | -72.98584 | 9030 ft | 310 kts | 40° |
| 2026-04-26 02:20 | 40.38491 | -72.96678 | 8832 ft | 309 kts | 40° |
| 2026-04-26 02:21 | 40.40076 | -72.94772 | 8623 ft | 308 kts | 40° |
| 2026-04-26 02:21 | 40.41653 | -72.92872 | 8402 ft | 308 kts | 41° |
| 2026-04-26 02:21 | 40.43225 | -72.90976 | 8208 ft | 307 kts | 41° |
| 2026-04-26 02:21 | 40.44792 | -72.89083 | 7999 ft | 306 kts | 41° |
| 2026-04-26 02:22 | 40.46359 | -72.87190 | 7792 ft | 305 kts | 41° |
| 2026-04-26 02:22 | 40.47919 | -72.85308 | 7589 ft | 303 kts | 41° |
| 2026-04-26 02:22 | 40.49471 | -72.83433 | 7385 ft | 302 kts | 41° |
| 2026-04-26 02:22 | 40.51053 | -72.81632 | 7178 ft | 297 kts | 33° |
| 2026-04-26 02:23 | 40.52820 | -72.80428 | 6984 ft | 285 kts | 16° |
| 2026-04-26 02:23 | 40.54703 | -72.79904 | 6853 ft | 270 kts | 0° |
| 2026-04-26 02:23 | 40.56543 | -72.79881 | 6740 ft | 259 kts | 356° |
| 2026-04-26 02:23 | 40.58333 | -72.79856 | 6623 ft | 256 kts | 357° |
| 2026-04-26 02:24 | 40.60110 | -72.79813 | 6501 ft | 255 kts | 358° |
| 2026-04-26 02:24 | 40.61883 | -72.79764 | 6382 ft | 254 kts | 358° |
| 2026-04-26 02:24 | 40.63648 | -72.79716 | 6266 ft | 253 kts | 358° |
| 2026-04-26 02:24 | 40.65405 | -72.79669 | 6150 ft | 251 kts | 358° |
| 2026-04-26 02:25 | 40.67145 | -72.79625 | 6038 ft | 250 kts | 359° |
| 2026-04-26 02:25 | 40.68881 | -72.79597 | 5871 ft | 249 kts | 354° |
| 2026-04-26 02:25 | 40.70513 | -72.80152 | 5714 ft | 239 kts | 328° |
| 2026-04-26 02:25 | 40.71780 | -72.81523 | 5643 ft | 235 kts | 303° |
| 2026-04-26 02:26 | 40.72477 | -72.83431 | 5608 ft | 230 kts | 279° |
| 2026-04-26 02:26 | 40.72605 | -72.85492 | 5556 ft | 229 kts | 269° |
| 2026-04-26 02:26 | 40.72657 | -72.87591 | 5506 ft | 229 kts | 269° |
| 2026-04-26 02:26 | 40.72713 | -72.89692 | 5321 ft | 229 kts | 269° |
| 2026-04-26 02:27 | 40.72772 | -72.91796 | 5054 ft | 230 kts | 270° |
| 2026-04-26 02:27 | 40.72831 | -72.93915 | 4756 ft | 232 kts | 270° |
| 2026-04-26 02:27 | 40.72889 | -72.96054 | 4445 ft | 235 kts | 270° |
| 2026-04-26 02:27 | 40.72946 | -72.98217 | 4153 ft | 234 kts | 271° |
| 2026-04-26 02:28 | 40.73004 | -73.00348 | 3833 ft | 231 kts | 271° |
| 2026-04-26 02:28 | 40.73061 | -73.02451 | 3527 ft | 228 kts | 272° |
| 2026-04-26 02:28 | 40.72859 | -73.04492 | 3244 ft | 223 kts | 251° |
| 2026-04-26 02:28 | 40.72345 | -73.06409 | 2945 ft | 221 kts | 248° |
| 2026-04-26 02:29 | 40.71800 | -73.08270 | 2657 ft | 220 kts | 247° |
| 2026-04-26 02:29 | 40.71253 | -73.10155 | 2442 ft | 220 kts | 247° |
| 2026-04-26 02:29 | 40.70710 | -73.12040 | 2258 ft | 219 kts | 247° |
| 2026-04-26 02:29 | 40.70179 | -73.13927 | 2078 ft | 220 kts | 247° |
| 2026-04-26 02:30 | 40.69650 | -73.15813 | 1893 ft | 218 kts | 247° |
| 2026-04-26 02:30 | 40.69355 | -73.17754 | 1698 ft | 218 kts | 278° |
| 2026-04-26 02:30 | 40.70032 | -73.19421 | 1602 ft | 200 kts | 324° |
| 2026-04-26 02:30 | 40.71197 | -73.20041 | 1598 ft | 169 kts | 2° |
| 2026-04-26 02:31 | 40.72273 | -73.19738 | 1596 ft | 152 kts | 34° |
| 2026-04-26 02:31 | 40.72813 | -73.19192 | 1640 ft | 146 kts | 50° |
| 2026-04-26 02:31 | 40.73530 | -73.18252 | 1573 ft | 144 kts | 50° |
| 2026-04-26 02:31 | 40.74214 | -73.17356 | 1434 ft | 135 kts | 49° |
| 2026-04-26 02:32 | 40.74873 | -73.16490 | 1269 ft | 133 kts | 50° |
| 2026-04-26 02:32 | 40.75529 | -73.15629 | 1086 ft | 133 kts | 50° |
| 2026-04-26 02:32 | 40.76182 | -73.14772 | 899 ft | 132 kts | 49° |
| 2026-04-26 02:32 | 40.76833 | -73.13916 | 708 ft | 133 kts | 48° |
| 2026-04-26 02:33 | 40.77483 | -73.13061 | 531 ft | 131 kts | 47° |
| 2026-04-26 02:33 | 40.78132 | -73.12209 | 363 ft | 130 kts | 47° |
| 2026-04-26 02:33 | 40.78775 | -73.11362 | 160 ft | 131 kts | 47° |
| 2026-04-26 02:33 | 40.79384 | -73.10558 | 103 ft | 101 kts | 44° |
| 2026-04-26 02:34 | 40.79626 | -73.10234 | 102 ft | 12 kts | 55° |
| 2026-04-26 02:34 | 40.79613 | -73.10142 | 102 ft | 10 kts | 130° |
| 2026-04-26 02:34 | 40.79563 | -73.10096 | 101 ft | 8 kts | 175° |
| 2026-04-26 02:34 | 40.79513 | -73.10096 | 101 ft | 6 kts | 180° |
| 2026-04-26 02:35 | 40.79476 | -73.10096 | 100 ft | 5 kts | 180° |
| 2026-04-26 02:35 | 40.79448 | -73.10096 | 102 ft | 4 kts | 180° |
| 2026-04-26 02:35 | 40.79415 | -73.10096 | 99 ft | 5 kts | 180° |
| 2026-04-26 02:35 | 40.79379 | -73.10096 | 100 ft | 5 kts | 180° |
| 2026-04-26 02:36 | 40.79343 | -73.10096 | 98 ft | 6 kts | 180° |
| 2026-04-26 02:36 | 40.79300 | -73.10096 | 99 ft | 6 kts | 180° |
| 2026-04-26 02:36 | 40.79254 | -73.10096 | 97 ft | 7 kts | 180° |
| 2026-04-26 02:36 | 40.79207 | -73.10096 | 98 ft | 7 kts | 180° |
| 2026-04-26 02:37 | 40.79172 | -73.10097 | 96 ft | 3 kts | 180° |
| 2026-04-26 02:37 | 40.79141 | -73.10089 | 97 ft | 6 kts | 158° |
| 2026-04-26 02:37 | 40.79117 | -73.10054 | 96 ft | 5 kts | 112° |
| 2026-04-26 02:37 | 40.79112 | -73.09985 | 97 ft | 8 kts | 92° |
| 2026-04-26 02:38 | 40.79112 | -73.09918 | 97 ft | 7 kts | 89° |
| 2026-04-26 02:38 | 40.79112 | -73.09852 | 98 ft | 11 kts | 90° |
| 2026-04-26 02:38 | 40.79113 | -73.09744 | 97 ft | 11 kts | 90° |
| 2026-04-26 02:38 | 40.79113 | -73.09648 | 97 ft | 10 kts | 90° |
| 2026-04-26 02:39 | 40.79112 | -73.09573 | 96 ft | 5 kts | 103° |
| 2026-04-26 02:39 | 40.79090 | -73.09536 | 94 ft | 5 kts | 140° |
| 2026-04-26 02:39 | 40.79067 | -73.09530 | 96 ft | 2 kts | 179° |
| 2026-04-26 02:39 | 40.79064 | -73.09530 | 95 ft | 0 kts | 180° |